Time;durP1;ratioP1;P1;durP2;ratioP2;P2;SDS_P1;SDS_P2;PMS_P1;PMS_P2;Temp;Humidity;BMP_temperature;BMP_pressure;BME280_temperature;BME280_humidity;BME280_pressure;Samples;Min_cycle;Max_cycle;Signal;HPM_P1;HPM_P2
2023/03/21 00:00:47;;;;;;;;;;;17.30;64.90;;;;;;5037311;28;882;-74
2023/03/21 00:03:12;;;;;;;;;;;17.30;64.90;;;;;;5043687;28;1264;-74
2023/03/21 00:05:41;;;;;;;;;;;17.30;65.00;;;;;;5039140;28;918;-73
2023/03/21 00:08:07;;;;;;;;;;;17.30;64.90;;;;;;5038258;28;946;-74
2023/03/21 00:10:32;;;;;;;;;;;17.30;64.90;;;;;;5039115;28;883;-74
2023/03/21 00:12:57;;;;;;;;;;;17.30;65.00;;;;;;5036212;28;1299;-74
2023/03/21 00:15:24;;;;;;;;;;;17.30;65.00;;;;;;5036210;28;812;-74
2023/03/21 00:17:52;;;;;;;;;;;17.30;65.00;;;;;;5036130;28;884;-74
2023/03/21 00:20:18;;;;;;;;;;;17.20;64.90;;;;;;5038449;28;1922;-74
2023/03/21 00:22:43;;;;;;;;;;;17.20;65.00;;;;;;5035210;28;880;-74
2023/03/21 00:25:09;;;;;;;;;;;17.30;65.00;;;;;;5037504;28;1247;-72
2023/03/21 00:27:35;;;;;;;;;;;17.20;65.00;;;;;;5048833;28;879;-71
2023/03/21 00:30:00;;;;;;;;;;;17.30;65.00;;;;;;5041406;28;836;-72
2023/03/21 00:32:25;;;;;;;;;;;17.30;65.00;;;;;;5039142;28;899;-71
2023/03/21 00:34:51;;;;;;;;;;;17.30;65.00;;;;;;5044446;28;1441;-72
2023/03/21 00:37:17;;;;;;;;;;;17.30;65.00;;;;;;5026260;28;1155;-72
2023/03/21 00:39:46;;;;;;;;;;;17.30;65.10;;;;;;5041906;28;1979;-72
2023/03/21 00:42:11;;;;;;;;;;;17.30;65.00;;;;;;5048182;28;1263;-72
2023/03/21 00:44:39;;;;;;;;;;;17.20;65.10;;;;;;5044989;28;1239;-72
2023/03/21 00:47:04;;;;;;;;;;;17.20;65.10;;;;;;5044309;28;836;-72
2023/03/21 00:49:32;;;;;;;;;;;17.30;65.10;;;;;;5042433;28;867;-72
2023/03/21 00:52:02;;;;;;;;;;;17.20;65.10;;;;;;5038234;28;1315;-72
2023/03/21 00:54:27;;;;;;;;;;;17.20;65.10;;;;;;5042804;28;1275;-72
2023/03/21 00:56:52;;;;;;;;;;;17.20;65.10;;;;;;5040326;28;902;-71
2023/03/21 00:59:18;;;;;;;;;;;17.20;65.10;;;;;;5040771;28;1898;-71
2023/03/21 01:01:45;;;;;;;;;;;17.20;65.10;;;;;;5043457;28;889;-73
2023/03/21 01:04:13;;;;;;;;;;;17.20;65.10;;;;;;5038490;28;1264;-72
2023/03/21 01:06:39;;;;;;;;;;;17.20;65.10;;;;;;5039104;28;1194;-72
2023/03/21 01:09:06;;;;;;;;;;;17.20;65.20;;;;;;5046172;28;908;-73
2023/03/21 01:11:32;;;;;;;;;;;17.20;65.10;;;;;;5041872;28;830;-72
2023/03/21 01:13:57;;;;;;;;;;;17.20;65.10;;;;;;5046640;28;1247;-73
2023/03/21 01:16:23;;;;;;;;;;;17.20;65.10;;;;;;5046698;28;1350;-72
2023/03/21 01:18:49;;;;;;;;;;;17.20;65.10;;;;;;5037875;28;1898;-72
2023/03/21 01:21:14;;;;;;;;;;;17.20;65.10;;;;;;5038149;28;969;-72
2023/03/21 01:23:40;;;;;;;;;;;17.20;65.10;;;;;;5040875;28;1334;-72
2023/03/21 01:26:06;;;;;;;;;;;17.20;65.20;;;;;;5029574;28;1190;-72
2023/03/21 01:28:31;;;;;;;;;;;17.20;65.20;;;;;;5038698;28;853;-72
2023/03/21 01:30:59;;;;;;;;;;;17.20;65.20;;;;;;5041390;28;860;-75
2023/03/21 01:33:24;;;;;;;;;;;17.20;65.20;;;;;;5027538;28;1350;-75
2023/03/21 01:35:50;;;;;;;;;;;17.20;65.20;;;;;;5036824;28;1266;-75
2023/03/21 01:38:15;;;;;;;;;;;17.20;65.20;;;;;;5038222;28;1941;-75
2023/03/21 01:40:41;;;;;;;;;;;17.20;65.20;;;;;;5042600;28;1006;-72
2023/03/21 01:43:26;;;;;;;;;;;17.20;65.20;;;;;;5043304;28;1541;-72
2023/03/21 01:46:11;;;;;;;;;;;17.20;65.20;;;;;;5040759;28;1074;-73
2023/03/21 01:48:36;;;;;;;;;;;17.20;65.20;;;;;;5038289;28;910;-72
2023/03/21 01:51:02;;;;;;;;;;;17.20;65.20;;;;;;5037714;28;912;-73
2023/03/21 01:53:28;;;;;;;;;;;17.20;65.20;;;;;;5042683;28;1358;-72
2023/03/21 01:55:56;;;;;;;;;;;17.20;65.30;;;;;;5038745;28;882;-73
2023/03/21 01:58:21;;;;;;;;;;;17.20;65.30;;;;;;5041308;28;1957;-72
2023/03/21 02:00:47;;;;;;;;;;;17.20;65.30;;;;;;5040696;28;800;-72
2023/03/21 02:03:15;;;;;;;;;;;17.20;65.30;;;;;;5039001;28;1251;-72
2023/03/21 02:05:50;;;;;;;;;;;17.20;65.30;;;;;;5038954;28;880;-73
2023/03/21 02:08:15;;;;;;;;;;;17.20;65.50;;;;;;5041104;28;924;-72
2023/03/21 02:10:41;;;;;;;;;;;17.20;65.30;;;;;;5037256;28;882;-72
2023/03/21 02:13:08;;;;;;;;;;;17.20;65.30;;;;;;5037951;28;1335;-72
2023/03/21 02:15:37;;;;;;;;;;;17.20;65.30;;;;;;5035022;28;837;-72
2023/03/21 02:18:20;;;;;;;;;;;17.20;65.30;;;;;;5038173;28;868;-72
2023/03/21 02:20:55;;;;;;;;;;;17.20;65.30;;;;;;5041823;28;855;-72
2023/03/21 02:23:35;;;;;;;;;;;17.20;65.30;;;;;;5038636;28;1287;-72
2023/03/21 02:26:10;;;;;;;;;;;17.20;65.30;;;;;;5039914;28;863;-72
2023/03/21 02:28:37;;;;;;;;;;;17.20;65.30;;;;;;5038655;28;831;-72
2023/03/21 02:31:12;;;;;;;;;;;17.20;65.40;;;;;;5046454;28;894;-72
2023/03/21 02:33:43;;;;;;;;;;;17.20;65.40;;;;;;5036204;28;1256;-72
2023/03/21 02:36:16;;;;;;;;;;;17.10;65.30;;;;;;5039232;28;1007;-72
2023/03/21 02:38:46;;;;;;;;;;;17.20;65.40;;;;;;5037687;28;1906;-72
2023/03/21 02:41:19;;;;;;;;;;;17.10;65.30;;;;;;5038295;28;929;-72
2023/03/21 02:43:55;;;;;;;;;;;17.20;65.40;;;;;;5041083;28;1291;-72
2023/03/21 02:46:23;;;;;;;;;;;17.10;65.40;;;;;;5041852;28;879;-72
2023/03/21 02:48:51;;;;;;;;;;;17.20;65.40;;;;;;5038280;28;855;-72
2023/03/21 02:51:17;;;;;;;;;;;17.20;65.40;;;;;;5037618;28;903;-73
2023/03/21 02:53:44;;;;;;;;;;;17.20;65.40;;;;;;5045288;28;1358;-74
2023/03/21 02:56:10;;;;;;;;;;;17.10;65.30;;;;;;5037288;28;872;-73
2023/03/21 02:58:36;;;;;;;;;;;17.20;65.40;;;;;;5039286;28;1977;-73
2023/03/21 03:01:01;;;;;;;;;;;17.20;65.40;;;;;;5039360;28;868;-71
2023/03/21 03:03:27;;;;;;;;;;;17.20;65.40;;;;;;5040121;28;1362;-72
2023/03/21 03:05:55;;;;;;;;;;;17.20;65.40;;;;;;5038005;28;947;-71
2023/03/21 03:08:25;;;;;;;;;;;17.20;65.40;;;;;;5039016;28;911;-72
2023/03/21 03:10:50;;;;;;;;;;;17.10;65.40;;;;;;5040407;28;904;-71
2023/03/21 03:13:16;;;;;;;;;;;17.20;65.40;;;;;;5039219;28;1287;-72
2023/03/21 03:15:51;;;;;;;;;;;17.20;65.40;;;;;;5037314;28;1053;-71
2023/03/21 03:18:23;;;;;;;;;;;17.20;65.50;;;;;;5039842;28;1942;-72
2023/03/21 03:20:49;;;;;;;;;;;17.10;65.40;;;;;;5040585;28;803;-71
2023/03/21 03:23:29;;;;;;;;;;;17.10;65.40;;;;;;5042155;28;1309;-72
2023/03/21 03:26:05;;;;;;;;;;;17.10;65.40;;;;;;5035624;28;1347;-71
2023/03/21 03:28:34;;;;;;;;;;;17.10;65.40;;;;;;5044128;28;860;-70
2023/03/21 03:30:59;;;;;;;;;;;17.10;65.40;;;;;;5025944;28;1433;-71
2023/03/21 03:33:25;;;;;;;;;;;17.10;65.40;;;;;;5038648;28;1276;-71
2023/03/21 03:35:51;;;;;;;;;;;17.10;65.40;;;;;;5036486;28;903;-71
2023/03/21 03:38:16;;;;;;;;;;;17.10;65.40;;;;;;5038901;28;1961;-71
2023/03/21 03:40:45;;;;;;;;;;;17.10;65.40;;;;;;5038491;28;833;-73
2023/03/21 03:43:13;;;;;;;;;;;17.10;65.40;;;;;;5040689;28;1539;-74
2023/03/21 03:45:43;;;;;;;;;;;17.10;65.40;;;;;;5034657;28;914;-71
2023/03/21 03:48:21;;;;;;;;;;;17.10;65.50;;;;;;5042759;28;848;-71
2023/03/21 03:50:46;;;;;;;;;;;17.10;65.40;;;;;;5038707;28;1308;-72
2023/03/21 03:53:15;;;;;;;;;;;17.10;65.40;;;;;;5038930;28;1291;-72
2023/03/21 03:55:41;;;;;;;;;;;17.10;65.40;;;;;;5038035;28;886;-72
2023/03/21 03:58:06;;;;;;;;;;;17.10;65.50;;;;;;5041639;28;932;-71
2023/03/21 04:00:32;;;;;;;;;;;17.10;65.40;;;;;;5038583;28;1968;-70
2023/03/21 04:02:58;;;;;;;;;;;17.10;65.40;;;;;;5039023;28;1251;-71
2023/03/21 04:05:25;;;;;;;;;;;17.10;65.50;;;;;;5036204;28;915;-71
2023/03/21 04:07:51;;;;;;;;;;;17.10;65.50;;;;;;5039261;28;859;-70
2023/03/21 04:10:16;;;;;;;;;;;17.10;65.50;;;;;;5041416;28;792;-72
2023/03/21 04:12:42;;;;;;;;;;;17.10;65.50;;;;;;5042160;28;784;-72
2023/03/21 04:15:08;;;;;;;;;;;17.10;65.50;;;;;;5045361;28;1153;-72
2023/03/21 04:17:33;;;;;;;;;;;17.10;65.50;;;;;;5043347;28;808;-72
2023/03/21 04:19:59;;;;;;;;;;;17.10;65.50;;;;;;5040697;28;1906;-71
2023/03/21 04:22:24;;;;;;;;;;;17.10;65.50;;;;;;5041086;28;876;-72
2023/03/21 04:24:50;;;;;;;;;;;17.10;65.50;;;;;;5042188;28;1355;-72
2023/03/21 04:27:15;;;;;;;;;;;17.10;65.50;;;;;;5043430;28;820;-71
2023/03/21 04:29:41;;;;;;;;;;;17.10;65.50;;;;;;5039252;28;804;-71
2023/03/21 04:32:15;;;;;;;;;;;17.10;65.50;;;;;;5043184;28;1301;-72
2023/03/21 04:34:48;;;;;;;;;;;17.10;65.50;;;;;;5040902;28;1431;-72
2023/03/21 04:37:17;;;;;;;;;;;17.10;65.50;;;;;;5037807;28;1515;-71
2023/03/21 04:39:45;;;;;;;;;;;17.10;65.50;;;;;;5040914;28;1902;-71
2023/03/21 04:42:13;;;;;;;;;;;17.10;65.50;;;;;;5048647;28;1290;-72
2023/03/21 04:44:39;;;;;;;;;;;17.10;65.50;;;;;;5041170;28;1370;-72
2023/03/21 04:47:04;;;;;;;;;;;17.10;65.50;;;;;;5038935;28;1062;-71
2023/03/21 04:49:30;;;;;;;;;;;17.10;65.50;;;;;;5040763;28;818;-71
2023/03/21 04:51:55;;;;;;;;;;;17.10;65.50;;;;;;5041143;28;930;-72
2023/03/21 04:54:21;;;;;;;;;;;17.10;65.50;;;;;;5042440;28;1270;-72
2023/03/21 04:56:46;;;;;;;;;;;17.10;65.50;;;;;;5044331;28;1341;-72
2023/03/21 04:59:12;;;;;;;;;;;17.10;65.60;;;;;;5040411;28;1970;-72
2023/03/21 05:01:40;;;;;;;;;;;17.10;65.60;;;;;;5040421;28;912;-72
2023/03/21 05:04:05;;;;;;;;;;;17.10;65.60;;;;;;5039072;28;1255;-72
2023/03/21 05:06:31;;;;;;;;;;;17.10;65.60;;;;;;5042384;28;1033;-72
2023/03/21 05:09:00;;;;;;;;;;;17.10;65.50;;;;;;5041990;28;883;-72
2023/03/21 05:11:27;;;;;;;;;;;17.10;65.50;;;;;;5041700;28;1119;-72
2023/03/21 05:13:52;;;;;;;;;;;17.10;65.40;;;;;;5041430;28;1358;-71
2023/03/21 05:16:17;;;;;;;;;;;17.10;65.30;;;;;;5040204;28;776;-71
2023/03/21 05:18:43;;;;;;;;;;;17.20;65.30;;;;;;5040293;28;1975;-72
2023/03/21 05:21:12;;;;;;;;;;;17.20;65.20;;;;;;5039961;28;1045;-72
2023/03/21 05:23:37;;;;;;;;;;;17.20;65.10;;;;;;5037697;28;1310;-72
2023/03/21 05:26:06;;;;;;;;;;;17.30;65.00;;;;;;5044225;28;1349;-73
2023/03/21 05:28:35;;;;;;;;;;;17.30;64.90;;;;;;5039905;28;898;-72
2023/03/21 05:31:00;;;;;;;;;;;17.30;64.70;;;;;;5040886;28;880;-71
2023/03/21 05:33:25;;;;;;;;;;;17.40;64.70;;;;;;5040707;28;1257;-73
2023/03/21 05:35:51;;;;;;;;;;;17.40;64.60;;;;;;5038601;28;856;-73
2023/03/21 05:38:16;;;;;;;;;;;17.40;64.50;;;;;;5041828;28;1395;-72
2023/03/21 05:40:45;;;;;;;;;;;17.40;64.40;;;;;;5040250;28;1898;-72
2023/03/21 05:43:11;;;;;;;;;;;17.40;64.30;;;;;;5046515;28;1287;-72
2023/03/21 05:45:36;;;;;;;;;;;17.50;64.30;;;;;;5044948;28;1186;-71
2023/03/21 05:48:02;;;;;;;;;;;17.50;64.20;;;;;;5044913;28;891;-71
2023/03/21 05:50:28;;;;;;;;;;;17.50;64.20;;;;;;5040324;28;831;-71
2023/03/21 05:52:53;;;;;;;;;;;17.50;64.10;;;;;;5037646;28;1248;-71
2023/03/21 05:55:19;;;;;;;;;;;17.50;64.00;;;;;;5038719;28;1241;-71
2023/03/21 05:57:44;;;;;;;;;;;17.60;64.00;;;;;;5040993;28;875;-71
2023/03/21 06:00:10;;;;;;;;;;;17.60;64.00;;;;;;5040325;28;1965;-71
2023/03/21 06:02:36;;;;;;;;;;;17.60;63.90;;;;;;5039323;28;840;-71
2023/03/21 06:05:02;;;;;;;;;;;17.60;63.80;;;;;;5038716;28;1339;-71
2023/03/21 06:07:27;;;;;;;;;;;17.60;63.80;;;;;;5040809;28;931;-72
2023/03/21 06:09:53;;;;;;;;;;;17.60;63.70;;;;;;5041877;28;903;-72
2023/03/21 06:12:18;;;;;;;;;;;17.60;63.70;;;;;;5036026;28;895;-72
2023/03/21 06:14:44;;;;;;;;;;;17.60;63.70;;;;;;5040722;28;1271;-73
2023/03/21 06:17:09;;;;;;;;;;;17.60;63.60;;;;;;5041502;28;825;-73
2023/03/21 06:19:35;;;;;;;;;;;17.60;63.60;;;;;;5037985;28;1961;-68
2023/03/21 06:22:00;;;;;;;;;;;17.60;63.60;;;;;;5039591;28;1999;-69
2023/03/21 06:24:26;;;;;;;;;;;17.70;63.60;;;;;;5039438;28;1356;-68
2023/03/21 06:26:51;;;;;;;;;;;17.70;63.60;;;;;;5041691;28;899;-69
2023/03/21 06:29:17;;;;;;;;;;;17.70;63.60;;;;;;5037746;28;880;-68
2023/03/21 06:31:42;;;;;;;;;;;17.70;63.50;;;;;;5037420;28;824;-68
2023/03/21 06:34:09;;;;;;;;;;;17.70;63.50;;;;;;5038361;28;1346;-68
2023/03/21 06:36:35;;;;;;;;;;;17.70;63.60;;;;;;5037557;28;926;-68
2023/03/21 06:39:00;;;;;;;;;;;17.70;63.50;;;;;;5036855;28;1961;-67
2023/03/21 06:41:26;;;;;;;;;;;17.70;63.50;;;;;;5040605;28;1252;-67
2023/03/21 06:43:51;;;;;;;;;;;17.70;63.50;;;;;;5039433;28;1288;-68
2023/03/21 06:46:17;;;;;;;;;;;17.70;63.50;;;;;;5036321;28;864;-68
2023/03/21 06:48:43;;;;;;;;;;;17.70;63.50;;;;;;5040276;28;1065;-68
2023/03/21 06:51:10;;;;;;;;;;;17.70;63.50;;;;;;5041012;28;848;-68
2023/03/21 06:53:35;;;;;;;;;;;17.70;63.50;;;;;;5034870;28;1264;-68
2023/03/21 06:56:01;;;;;;;;;;;17.70;63.50;;;;;;5039102;28;852;-68
2023/03/21 06:58:26;;;;;;;;;;;17.70;63.50;;;;;;5042007;28;1890;-69
2023/03/21 07:00:52;;;;;;;;;;;17.70;63.60;;;;;;5038325;28;848;-69
2023/03/21 07:03:18;;;;;;;;;;;17.70;63.60;;;;;;5038649;28;1200;-69
2023/03/21 07:05:43;;;;;;;;;;;17.70;63.60;;;;;;5039099;28;1339;-69
2023/03/21 07:08:11;;;;;;;;;;;17.70;63.60;;;;;;5037445;28;817;-70
2023/03/21 07:10:40;;;;;;;;;;;17.70;63.60;;;;;;5037719;28;876;-69
2023/03/21 07:13:06;;;;;;;;;;;17.70;63.60;;;;;;5040757;28;1250;-68
2023/03/21 07:15:32;;;;;;;;;;;17.60;63.60;;;;;;5037393;28;989;-68
2023/03/21 07:17:58;;;;;;;;;;;17.70;63.70;;;;;;5039644;28;835;-69
2023/03/21 07:20:25;;;;;;;;;;;17.70;63.60;;;;;;5037524;28;1959;-69
2023/03/21 07:22:51;;;;;;;;;;;17.70;63.70;;;;;;5042640;28;1467;-69
2023/03/21 07:25:16;;;;;;;;;;;17.60;63.60;;;;;;5036894;28;907;-70
2023/03/21 07:27:42;;;;;;;;;;;17.60;63.60;;;;;;5037302;28;880;-69
2023/03/21 07:30:07;;;;;;;;;;;17.70;63.70;;;;;;5039968;28;1002;-69
2023/03/21 07:32:33;;;;;;;;;;;17.60;63.60;;;;;;5038168;28;935;-69
2023/03/21 07:34:59;;;;;;;;;;;17.60;63.60;;;;;;5038486;28;1342;-70
2023/03/21 07:37:25;;;;;;;;;;;17.60;63.60;;;;;;5039300;28;1072;-69
2023/03/21 07:39:50;;;;;;;;;;;17.60;63.70;;;;;;5039669;28;1902;-70
2023/03/21 07:42:16;;;;;;;;;;;17.60;63.70;;;;;;5036147;28;1367;-71
2023/03/21 07:44:41;;;;;;;;;;;17.60;63.70;;;;;;5038781;28;1297;-70
2023/03/21 07:47:07;;;;;;;;;;;17.60;63.80;;;;;;5035927;28;828;-71
2023/03/21 07:49:32;;;;;;;;;;;17.60;63.70;;;;;;5039728;28;891;-71
2023/03/21 07:51:58;;;;;;;;;;;17.60;63.80;;;;;;5035571;28;1086;-72
2023/03/21 07:54:24;;;;;;;;;;;17.60;63.70;;;;;;5040150;28;1287;-72
2023/03/21 07:56:49;;;;;;;;;;;17.60;63.80;;;;;;5038172;28;820;-71
2023/03/21 07:59:15;;;;;;;;;;;17.60;63.80;;;;;;5041119;28;1894;-71
2023/03/21 08:01:40;;;;;;;;;;;17.60;63.80;;;;;;5037793;28;1045;-71
2023/03/21 08:04:07;;;;;;;;;;;17.60;63.80;;;;;;5037437;28;1271;-71
2023/03/21 08:06:32;;;;;;;;;;;17.60;63.80;;;;;;5040463;28;867;-70
2023/03/21 08:08:58;;;;;;;;;;;17.60;63.90;;;;;;5040134;28;804;-71
2023/03/21 08:11:23;;;;;;;;;;;17.60;63.90;;;;;;5041378;28;899;-71
2023/03/21 08:13:50;;;;;;;;;;;17.60;63.90;;;;;;5040238;28;1259;-71
2023/03/21 08:16:15;;;;;;;;;;;17.60;63.90;;;;;;5040000;28;1180;-71
2023/03/21 08:18:41;;;;;;;;;;;17.60;64.00;;;;;;5034927;28;1914;-70
2023/03/21 08:21:07;;;;;;;;;;;17.60;64.00;;;;;;5038120;28;860;-70
2023/03/21 08:23:32;;;;;;;;;;;17.60;64.00;;;;;;5037345;28;1291;-70
2023/03/21 08:25:58;;;;;;;;;;;17.60;64.00;;;;;;5039740;28;880;-70
2023/03/21 08:28:23;;;;;;;;;;;17.50;64.00;;;;;;5037918;28;793;-69
2023/03/21 08:30:49;;;;;;;;;;;17.50;64.00;;;;;;5037445;28;2151;-69
2023/03/21 08:33:14;;;;;;;;;;;17.50;64.00;;;;;;5036975;28;1847;-69
2023/03/21 08:35:40;;;;;;;;;;;17.50;64.10;;;;;;5038239;28;1369;-70
2023/03/21 08:38:05;;;;;;;;;;;17.50;64.00;;;;;;5039451;28;1321;-69
2023/03/21 08:40:31;;;;;;;;;;;17.50;64.10;;;;;;5041031;28;1957;-70
2023/03/21 08:42:56;;;;;;;;;;;17.50;64.10;;;;;;5036505;28;1320;-69
2023/03/21 08:45:22;;;;;;;;;;;17.50;64.10;;;;;;5036193;28;894;-70
2023/03/21 08:47:48;;;;;;;;;;;17.50;64.10;;;;;;5039748;28;916;-70
2023/03/21 08:50:17;;;;;;;;;;;17.50;64.20;;;;;;5039190;28;816;-70
2023/03/21 08:52:43;;;;;;;;;;;17.50;64.20;;;;;;5040484;28;930;-70
2023/03/21 08:55:09;;;;;;;;;;;17.50;64.20;;;;;;5040132;28;1267;-69
2023/03/21 08:57:34;;;;;;;;;;;17.50;64.20;;;;;;5041241;28;892;-69
2023/03/21 09:00:00;;;;;;;;;;;17.50;64.30;;;;;;5042819;28;1893;-69
2023/03/21 09:02:26;;;;;;;;;;;17.50;64.20;;;;;;5043805;28;868;-70
2023/03/21 09:04:57;;;;;;;;;;;17.50;64.30;;;;;;5042611;28;1316;-69
2023/03/21 09:07:25;;;;;;;;;;;17.50;64.30;;;;;;5038989;28;2344;-70
2023/03/21 09:09:52;;;;;;;;;;;17.50;64.30;;;;;;5042782;28;1262;-70
2023/03/21 09:12:18;;;;;;;;;;;17.50;64.30;;;;;;5040252;28;1165;-70
2023/03/21 09:14:43;;;;;;;;;;;17.50;64.30;;;;;;5040095;28;1269;-70
2023/03/21 09:17:09;;;;;;;;;;;17.50;64.30;;;;;;5036423;28;792;-70
2023/03/21 09:19:34;;;;;;;;;;;17.50;64.30;;;;;;5044860;28;1902;-70
2023/03/21 09:22:00;;;;;;;;;;;17.50;64.30;;;;;;5037801;28;1294;-70
2023/03/21 09:24:26;;;;;;;;;;;17.50;64.30;;;;;;5027066;28;1288;-70
2023/03/21 09:26:51;;;;;;;;;;;17.50;64.40;;;;;;5043312;28;848;-70
2023/03/21 09:29:19;;;;;;;;;;;17.50;64.30;;;;;;5041569;28;856;-70
2023/03/21 09:31:46;;;;;;;;;;;17.50;64.40;;;;;;5040226;28;1241;-70
2023/03/21 09:34:13;;;;;;;;;;;17.50;64.40;;;;;;5037540;28;1355;-71
2023/03/21 09:36:41;;;;;;;;;;;17.50;64.30;;;;;;5042268;28;1365;-70
2023/03/21 09:39:07;;;;;;;;;;;17.50;64.30;;;;;;5042423;28;1902;-71
2023/03/21 09:41:48;;;;;;;;;;;17.50;64.30;;;;;;5041385;28;956;-70
2023/03/21 09:44:16;;;;;;;;;;;17.50;64.30;;;;;;5040299;28;1269;-70
2023/03/21 09:46:43;;;;;;;;;;;17.50;64.30;;;;;;5039805;28;2095;-70
2023/03/21 09:49:30;;;;;;;;;;;17.50;64.30;;;;;;5039913;28;2005;-71
2023/03/21 09:51:57;;;;;;;;;;;17.50;64.30;;;;;;5038128;28;1958;-70
2023/03/21 09:54:26;;;;;;;;;;;17.50;64.20;;;;;;5044114;28;1399;-71
2023/03/21 09:56:57;;;;;;;;;;;17.50;64.20;;;;;;5041975;28;949;-70
2023/03/21 09:59:36;;;;;;;;;;;17.50;64.20;;;;;;5037397;28;1969;-70
2023/03/21 10:02:04;;;;;;;;;;;17.50;64.10;;;;;;5040088;28;891;-70
2023/03/21 10:04:31;;;;;;;;;;;17.60;64.10;;;;;;5040080;28;1261;-70
2023/03/21 10:06:58;;;;;;;;;;;17.60;64.10;;;;;;5037878;28;849;-70
2023/03/21 10:09:23;;;;;;;;;;;17.60;64.00;;;;;;5038189;28;876;-70
2023/03/21 10:12:09;;;;;;;;;;;17.60;64.30;;;;;;5037735;28;861;-70
2023/03/21 10:14:41;;;;;;;;;;;17.60;64.10;;;;;;5038313;28;1346;-70
2023/03/21 10:17:25;;;;;;;;;;;17.60;64.00;;;;;;5039213;28;983;-70
2023/03/21 10:20:09;;;;;;;;;;;17.60;64.00;;;;;;5040633;28;1961;-70
2023/03/21 10:22:35;;;;;;;;;;;17.60;64.00;;;;;;5040242;28;1204;-70
2023/03/21 10:25:00;;;;;;;;;;;17.60;63.90;;;;;;5036954;28;1667;-70
2023/03/21 10:27:26;;;;;;;;;;;17.60;63.90;;;;;;5038685;28;879;-70
2023/03/21 10:29:52;;;;;;;;;;;17.60;63.90;;;;;;5037661;28;895;-70
2023/03/21 10:32:17;;;;;;;;;;;17.60;63.80;;;;;;5036673;28;883;-70
2023/03/21 10:34:49;;;;;;;;;;;17.60;63.80;;;;;;5039320;28;1346;-70
2023/03/21 10:37:15;;;;;;;;;;;17.70;64.70;;;;;;5040222;28;1001;-70
2023/03/21 10:39:51;;;;;;;;;;;17.70;63.90;;;;;;5036845;28;1965;-70
2023/03/21 10:42:21;;;;;;;;;;;17.70;64.40;;;;;;5041050;28;1452;-70
2023/03/21 10:44:47;;;;;;;;;;;17.70;63.80;;;;;;5041373;28;1393;-70
2023/03/21 10:47:14;;;;;;;;;;;17.70;63.70;;;;;;5039712;28;855;-70
2023/03/21 10:49:39;;;;;;;;;;;17.70;63.60;;;;;;5039521;28;1321;-70
2023/03/21 10:52:06;;;;;;;;;;;17.70;63.60;;;;;;5036852;28;874;-70
2023/03/21 10:54:32;;;;;;;;;;;17.70;63.60;;;;;;5037740;28;1282;-70
2023/03/21 10:57:07;;;;;;;;;;;17.70;63.70;;;;;;5038345;28;868;-70
2023/03/21 10:59:34;;;;;;;;;;;17.70;63.70;;;;;;5036762;28;1906;-70
2023/03/21 11:02:01;;;;;;;;;;;17.70;63.70;;;;;;5034277;28;971;-70
2023/03/21 11:04:26;;;;;;;;;;;17.70;63.70;;;;;;5039636;28;1353;-70
2023/03/21 11:06:56;;;;;;;;;;;17.70;63.80;;;;;;5037583;28;892;-70
2023/03/21 11:09:23;;;;;;;;;;;17.70;63.80;;;;;;5040874;28;967;-70
2023/03/21 11:11:51;;;;;;;;;;;17.70;63.80;;;;;;5038592;28;848;-70
2023/03/21 11:14:23;;;;;;;;;;;17.70;63.80;;;;;;5037329;28;1344;-70
2023/03/21 11:16:49;;;;;;;;;;;17.70;63.80;;;;;;5039476;28;998;-70
2023/03/21 11:19:16;;;;;;;;;;;17.70;63.80;;;;;;5038253;28;1914;-70
2023/03/21 11:21:41;;;;;;;;;;;17.70;63.80;;;;;;5040424;28;1026;-70
2023/03/21 11:24:10;;;;;;;;;;;17.70;63.80;;;;;;5038028;28;1319;-70
2023/03/21 11:26:36;;;;;;;;;;;17.70;63.80;;;;;;5037438;28;780;-70
2023/03/21 11:29:16;;;;;;;;;;;17.70;63.70;;;;;;5036510;28;879;-70
2023/03/21 11:31:41;;;;;;;;;;;17.70;63.70;;;;;;5036626;28;824;-70
2023/03/21 11:34:07;;;;;;;;;;;17.70;63.70;;;;;;5041838;28;1280;-70
2023/03/21 11:36:33;;;;;;;;;;;17.70;63.70;;;;;;5039466;28;954;-70
2023/03/21 11:39:11;;;;;;;;;;;17.70;63.60;;;;;;5037656;28;1936;-70
2023/03/21 11:41:38;;;;;;;;;;;17.70;63.60;;;;;;5039677;28;1898;-70
2023/03/21 11:44:04;;;;;;;;;;;17.70;63.60;;;;;;5037867;28;1273;-71
2023/03/21 11:46:30;;;;;;;;;;;17.70;63.60;;;;;;5038762;28;947;-71
2023/03/21 11:48:55;;;;;;;;;;;17.70;63.50;;;;;;5006755;28;4081;-70
2023/03/21 11:51:32;;;;;;;;;;;17.70;63.50;;;;;;5038651;28;3098;-70
2023/03/21 11:54:04;;;;;;;;;;;17.80;63.60;;;;;;5038751;28;1324;-70
2023/03/21 11:56:33;;;;;;;;;;;17.80;63.50;;;;;;5039955;28;863;-69
2023/03/21 11:59:00;;;;;;;;;;;17.80;63.50;;;;;;5038296;28;1981;-70
2023/03/21 12:01:26;;;;;;;;;;;17.80;63.50;;;;;;5041276;28;896;-70
2023/03/21 12:03:54;;;;;;;;;;;17.80;63.40;;;;;;5042413;28;1286;-71
2023/03/21 12:06:31;;;;;;;;;;;17.80;63.40;;;;;;5038630;28;1232;-70
2023/03/21 12:08:57;;;;;;;;;;;17.80;63.40;;;;;;5036764;28;987;-70
2023/03/21 12:11:49;;;;;;;;;;;17.80;63.40;;;;;;5035807;28;899;-70
2023/03/21 12:14:14;;;;;;;;;;;17.80;63.40;;;;;;5037451;28;1343;-70
2023/03/21 12:16:58;;;;;;;;;;;17.80;63.40;;;;;;5034805;28;919;-70
2023/03/21 12:19:42;;;;;;;;;;;17.80;64.10;;;;;;5036810;28;1907;-70
2023/03/21 12:22:46;;;;;;;;;;;17.80;63.40;;;;;;5041724;28;875;-70
2023/03/21 12:25:16;;;;;;;;;;;17.80;63.40;;;;;;5007011;28;1236;-69
2023/03/21 12:28:00;;;;;;;;;;;17.80;63.50;;;;;;5007532;28;876;-69
2023/03/21 12:30:37;;;;;;;;;;;17.80;63.40;;;;;;5029529;28;1143;-69
2023/03/21 12:33:06;;;;;;;;;;;17.80;63.50;;;;;;5042670;28;1365;-69
2023/03/21 12:35:37;;;;;;;;;;;17.80;63.50;;;;;;5048731;28;1027;-69
2023/03/21 12:38:03;;;;;;;;;;;17.80;63.50;;;;;;5045449;28;1084;-69
2023/03/21 12:40:32;;;;;;;;;;;17.70;63.40;;;;;;5042285;28;1910;-69
2023/03/21 12:43:19;;;;;;;;;;;17.80;63.70;;;;;;5042762;28;1366;-70
2023/03/21 12:45:45;;;;;;;;;;;17.80;63.60;;;;;;5046296;28;967;-69
2023/03/21 12:48:14;;;;;;;;;;;17.70;63.60;;;;;;5042320;28;834;-69
2023/03/21 12:50:39;;;;;;;;;;;17.70;63.60;;;;;;5043341;28;992;-69
2023/03/21 12:53:20;;;;;;;;;;;17.70;63.60;;;;;;5041160;28;1334;-69
2023/03/21 12:55:46;;;;;;;;;;;17.70;63.70;;;;;;5043640;28;904;-69
2023/03/21 12:58:17;;;;;;;;;;;17.70;63.70;;;;;;5042724;28;1077;-70
2023/03/21 13:00:43;;;;;;;;;;;17.70;64.40;;;;;;5045951;28;1973;-69
2023/03/21 13:03:17;;;;;;;;;;;17.70;63.70;;;;;;5041107;28;1351;-69
2023/03/21 13:05:43;;;;;;;;;;;17.70;63.80;;;;;;5041732;28;852;-69
2023/03/21 13:08:14;;;;;;;;;;;17.70;63.80;;;;;;5042460;28;821;-69
2023/03/21 13:10:40;;;;;;;;;;;17.70;63.80;;;;;;5043579;28;857;-69
2023/03/21 13:13:15;;;;;;;;;;;17.70;63.90;;;;;;5044966;28;1245;-71
2023/03/21 13:15:58;;;;;;;;;;;17.70;63.90;;;;;;5041723;28;1034;-70
2023/03/21 13:18:42;;;;;;;;;;;17.70;63.90;;;;;;5042195;28;1086;-70
2023/03/21 13:21:15;;;;;;;;;;;17.70;64.00;;;;;;5036748;28;879;-70
2023/03/21 13:23:41;;;;;;;;;;;17.70;64.00;;;;;;5039578;28;1260;-70
2023/03/21 13:26:07;;;;;;;;;;;17.60;64.00;;;;;;5040965;28;1446;-70
2023/03/21 13:28:33;;;;;;;;;;;17.70;64.00;;;;;;5038308;28;935;-70
2023/03/21 13:31:17;;;;;;;;;;;17.70;64.00;;;;;;5041272;28;898;-70
2023/03/21 13:33:44;;;;;;;;;;;17.60;63.30;;;;;;5039102;28;1331;-70
2023/03/21 13:36:14;;;;;;;;;;;17.60;64.10;;;;;;5043023;28;795;-71
2023/03/21 13:38:39;;;;;;;;;;;17.60;64.10;;;;;;5039853;28;1890;-69
2023/03/21 13:41:14;;;;;;;;;;;17.60;64.10;;;;;;5039632;28;1717;-71
2023/03/21 13:43:52;;;;;;;;;;;17.60;64.10;;;;;;5043989;28;1801;-73
2023/03/21 13:46:23;;;;;;;;;;;17.60;64.10;;;;;;5041883;28;1550;-72
2023/03/21 13:48:52;;;;;;;;;;;17.60;64.10;;;;;;5041930;28;1007;-70
2023/03/21 13:51:35;;;;;;;;;;;17.60;64.20;;;;;;5041456;28;974;-71
2023/03/21 13:54:01;;;;;;;;;;;17.60;64.10;;;;;;5040089;28;1246;-71
2023/03/21 13:56:26;;;;;;;;;;;17.60;64.20;;;;;;5037740;28;912;-71
2023/03/21 13:58:53;;;;;;;;;;;17.60;64.10;;;;;;5037841;28;2202;-71
2023/03/21 14:01:22;;;;;;;;;;;17.60;64.20;;;;;;5039436;28;1772;-71
2023/03/21 14:03:48;;;;;;;;;;;17.60;64.10;;;;;;5040312;28;1337;-71
2023/03/21 14:06:13;;;;;;;;;;;17.60;64.20;;;;;;5041033;28;1945;-71
2023/03/21 14:08:40;;;;;;;;;;;17.60;64.20;;;;;;5040688;28;975;-70
2023/03/21 14:11:06;;;;;;;;;;;17.60;64.20;;;;;;5037483;28;1257;-70
2023/03/21 14:13:32;;;;;;;;;;;17.60;65.00;;;;;;5041863;28;1303;-70
2023/03/21 14:16:06;;;;;;;;;;;17.60;64.20;;;;;;5037906;28;888;-71
2023/03/21 14:18:38;;;;;;;;;;;17.60;64.30;;;;;;5038176;28;841;-72
2023/03/21 14:21:03;;;;;;;;;;;17.60;64.20;;;;;;5039993;28;1902;-71
2023/03/21 14:23:29;;;;;;;;;;;17.60;64.20;;;;;;5039425;28;1252;-71
2023/03/21 14:25:54;;;;;;;;;;;17.60;64.30;;;;;;5040440;28;1018;-71
2023/03/21 14:28:21;;;;;;;;;;;17.60;64.20;;;;;;5038053;28;874;-70
2023/03/21 14:30:51;;;;;;;;;;;17.60;64.30;;;;;;5042703;28;849;-70
2023/03/21 14:33:19;;;;;;;;;;;17.60;64.30;;;;;;5044927;28;2138;-70
2023/03/21 14:35:45;;;;;;;;;;;17.60;64.70;;;;;;5037798;28;1417;-70
2023/03/21 14:38:18;;;;;;;;;;;17.60;64.30;;;;;;5038476;28;1352;-70
2023/03/21 14:40:47;;;;;;;;;;;17.60;64.30;;;;;;5038648;28;1969;-69